sensor_id;sensor_type;location;lat;lon;timestamp;pressure;altitude;pressure_sealevel;temperature;humidity
65175;BME280;51761;42.126;24.752;2023-03-20T00:00:55;100084.03;;;7.93;74.15
65175;BME280;51761;42.126;24.752;2023-03-20T00:03:20;100092.75;;;7.81;75.05
65175;BME280;51761;42.126;24.752;2023-03-20T00:05:46;100058.56;;;7.80;75.03
65175;BME280;51761;42.126;24.752;2023-03-20T00:08:11;100052.22;;;7.77;74.32
65175;BME280;51761;42.126;24.752;2023-03-20T00:10:39;100069.69;;;7.77;74.75
65175;BME280;51761;42.126;24.752;2023-03-20T00:13:07;100067.34;;;7.86;74.00
65175;BME280;51761;42.126;24.752;2023-03-20T00:15:38;100065.34;;;7.93;73.87
65175;BME280;51761;42.126;24.752;2023-03-20T00:18:13;100063.31;;;7.66;74.65
65175;BME280;51761;42.126;24.752;2023-03-20T00:20:40;100040.63;;;7.54;74.48
65175;BME280;51761;42.126;24.752;2023-03-20T00:23:06;100062.13;;;7.71;73.68
65175;BME280;51761;42.126;24.752;2023-03-20T00:25:31;100056.16;;;7.72;73.70
65175;BME280;51761;42.126;24.752;2023-03-20T00:27:58;100055.38;;;7.72;73.66
65175;BME280;51761;42.126;24.752;2023-03-20T00:30:28;100054.59;;;7.75;73.34
65175;BME280;51761;42.126;24.752;2023-03-20T00:32:56;100030.75;;;7.63;73.65
65175;BME280;51761;42.126;24.752;2023-03-20T00:35:24;100033.53;;;7.63;73.17
65175;BME280;51761;42.126;24.752;2023-03-20T00:37:51;100049.03;;;7.81;73.00
65175;BME280;51761;42.126;24.752;2023-03-20T00:40:17;100049.06;;;7.85;72.92
65175;BME280;51761;42.126;24.752;2023-03-20T00:42:46;100041.50;;;7.78;73.00
65175;BME280;51761;42.126;24.752;2023-03-20T00:45:18;100042.28;;;7.82;73.05
65175;BME280;51761;42.126;24.752;2023-03-20T00:47:47;100020.44;;;7.71;72.81
65175;BME280;51761;42.126;24.752;2023-03-20T00:50:16;100036.72;;;7.79;72.92
65175;BME280;51761;42.126;24.752;2023-03-20T00:52:42;100022.41;;;7.63;73.06
65175;BME280;51761;42.126;24.752;2023-03-20T00:55:09;100016.44;;;7.61;73.12
65175;BME280;51761;42.126;24.752;2023-03-20T00:57:43;100036.31;;;7.77;73.26
65175;BME280;51761;42.126;24.752;2023-03-20T01:00:16;100040.31;;;7.79;72.83
65175;BME280;51761;42.126;24.752;2023-03-20T01:02:43;100040.28;;;7.73;73.11
65175;BME280;51761;42.126;24.752;2023-03-20T01:05:10;100010.09;;;7.57;73.18
65175;BME280;51761;42.126;24.752;2023-03-20T01:07:35;100011.66;;;7.58;73.47
65175;BME280;51761;42.126;24.752;2023-03-20T01:10:00;100038.31;;;7.77;73.55
65175;BME280;51761;42.126;24.752;2023-03-20T01:12:29;100025.22;;;7.74;73.13
65175;BME280;51761;42.126;24.752;2023-03-20T01:14:56;100028.38;;;7.76;73.11
65175;BME280;51761;42.126;24.752;2023-03-20T01:17:24;100004.94;;;7.66;73.02
65175;BME280;51761;42.126;24.752;2023-03-20T01:19:50;100025.19;;;7.70;73.45
65175;BME280;51761;42.126;24.752;2023-03-20T01:22:16;100028.38;;;7.76;73.58
65175;BME280;51761;42.126;24.752;2023-03-20T01:24:45;99998.97;;;7.64;73.98
65175;BME280;51761;42.126;24.752;2023-03-20T01:27:16;99993.78;;;7.63;74.19
65175;BME280;51761;42.126;24.752;2023-03-20T01:29:43;100015.69;;;7.75;74.12
65175;BME280;51761;42.126;24.752;2023-03-20T01:32:14;100016.88;;;7.74;74.20
65175;BME280;51761;42.126;24.752;2023-03-20T01:34:40;100021.25;;;7.81;72.76
65175;BME280;51761;42.126;24.752;2023-03-20T01:37:11;100018.06;;;7.79;72.60
65175;BME280;51761;42.126;24.752;2023-03-20T01:39:37;100017.25;;;7.65;73.38
65175;BME280;51761;42.126;24.752;2023-03-20T01:42:05;100005.28;;;7.51;73.98
65175;BME280;51761;42.126;24.752;2023-03-20T01:44:33;100014.00;;;7.49;74.37
65175;BME280;51761;42.126;24.752;2023-03-20T01:47:01;100008.84;;;7.51;74.15
65175;BME280;51761;42.126;24.752;2023-03-20T01:51:55;100013.97;;;7.28;74.90
65175;BME280;51761;42.126;24.752;2023-03-20T01:54:29;99998.88;;;7.29;74.24
65175;BME280;51761;42.126;24.752;2023-03-20T01:57:07;100001.25;;;7.31;74.69
65175;BME280;51761;42.126;24.752;2023-03-20T01:59:42;100004.00;;;7.20;74.69
65175;BME280;51761;42.126;24.752;2023-03-20T02:02:09;99994.00;;;7.02;74.83
65175;BME280;51761;42.126;24.752;2023-03-20T02:04:41;100003.53;;;7.08;74.92
65175;BME280;51761;42.126;24.752;2023-03-20T02:07:09;100006.72;;;7.06;74.74
65175;BME280;51761;42.126;24.752;2023-03-20T02:09:36;100006.75;;;7.10;74.77
65175;BME280;51761;42.126;24.752;2023-03-20T02:12:02;99996.38;;;7.00;74.49
65175;BME280;51761;42.126;24.752;2023-03-20T02:14:28;99984.88;;;6.98;74.27
65175;BME280;51761;42.126;24.752;2023-03-20T02:16:54;100007.09;;;7.01;74.63
65175;BME280;51761;42.126;24.752;2023-03-20T02:19:29;100003.53;;;7.01;74.65
65175;BME280;51761;42.126;24.752;2023-03-20T02:40:09;100001.47;;;6.87;74.58
65175;BME280;51761;42.126;24.752;2023-03-20T02:42:54;99973.22;;;6.68;74.50
65175;BME280;51761;42.126;24.752;2023-03-20T02:45:27;99977.13;;;6.53;74.93
65175;BME280;51761;42.126;24.752;2023-03-20T03:01:52;99989.13;;;5.70;76.04
65175;BME280;51761;42.126;24.752;2023-03-20T03:04:26;99989.22;;;5.81;75.79
65175;BME280;51761;42.126;24.752;2023-03-20T03:06:55;99985.34;;;5.92;75.20
65175;BME280;51761;42.126;24.752;2023-03-20T03:09:33;99988.22;;;5.99;75.02
65175;BME280;51761;42.126;24.752;2023-03-20T03:12:10;99983.44;;;6.00;75.26
65175;BME280;51761;42.126;24.752;2023-03-20T03:14:42;99981.56;;;6.11;74.71
65175;BME280;51761;42.126;24.752;2023-03-20T03:17:11;99960.13;;;6.04;74.72
65175;BME280;51761;42.126;24.752;2023-03-20T03:19:39;99958.13;;;6.01;74.38
65175;BME280;51761;42.126;24.752;2023-03-20T03:22:07;99982.41;;;6.15;74.68
65175;BME280;51761;42.126;24.752;2023-03-20T03:24:35;99958.91;;;5.98;74.87
65175;BME280;51761;42.126;24.752;2023-03-20T03:27:05;99979.25;;;6.20;74.78
65175;BME280;51761;42.126;24.752;2023-03-20T03:29:36;99978.03;;;6.17;74.59
65175;BME280;51761;42.126;24.752;2023-03-20T03:32:05;99976.44;;;6.13;74.93
65175;BME280;51761;42.126;24.752;2023-03-20T03:34:32;99983.16;;;6.12;74.94
65175;BME280;51761;42.126;24.752;2023-03-20T03:37:26;99980.41;;;6.12;75.05
65175;BME280;51761;42.126;24.752;2023-03-20T03:40:17;99982.72;;;6.10;74.78
65175;BME280;51761;42.126;24.752;2023-03-20T03:43:07;99974.78;;;6.05;74.72
65175;BME280;51761;42.126;24.752;2023-03-20T03:45:43;99978.75;;;6.07;74.94
65175;BME280;51761;42.126;24.752;2023-03-20T03:48:27;99985.09;;;6.04;75.29
65175;BME280;51761;42.126;24.752;2023-03-20T03:51:00;99986.28;;;6.07;75.29
65175;BME280;51761;42.126;24.752;2023-03-20T03:53:34;99984.25;;;6.00;75.58
65175;BME280;51761;42.126;24.752;2023-03-20T03:56:05;99960.00;;;5.90;75.79
65175;BME280;51761;42.126;24.752;2023-03-20T03:58:44;99992.56;;;6.00;76.46
65175;BME280;51761;42.126;24.752;2023-03-20T04:01:13;99986.25;;;6.03;76.32
65175;BME280;51761;42.126;24.752;2023-03-20T04:03:50;99983.09;;;6.01;76.35
65175;BME280;51761;42.126;24.752;2023-03-20T04:06:17;99990.22;;;6.06;76.48
65175;BME280;51761;42.126;24.752;2023-03-20T04:08:43;99984.56;;;5.92;76.92
65175;BME280;51761;42.126;24.752;2023-03-20T04:11:20;99992.44;;;5.83;77.40
65175;BME280;51761;42.126;24.752;2023-03-20T04:13:48;99979.63;;;5.71;77.60
65175;BME280;51761;42.126;24.752;2023-03-20T04:16:15;99992.38;;;5.79;77.64
65175;BME280;51761;42.126;24.752;2023-03-20T04:18:41;99986.25;;;5.63;78.11
65175;BME280;51761;42.126;24.752;2023-03-20T04:21:08;99983.72;;;5.44;79.22
65175;BME280;51761;42.126;24.752;2023-03-20T04:23:34;99985.72;;;5.47;79.38
65175;BME280;51761;42.126;24.752;2023-03-20T04:25:59;99979.41;;;5.50;78.77
65175;BME280;51761;42.126;24.752;2023-03-20T04:28:26;99963.38;;;5.30;79.55
65175;BME280;51761;42.126;24.752;2023-03-20T04:30:52;99960.28;;;5.38;78.48
65175;BME280;51761;42.126;24.752;2023-03-20T04:33:18;99965.91;;;5.45;78.61
65175;BME280;51761;42.126;24.752;2023-03-20T04:35:43;99988.34;;;5.73;77.83
65175;BME280;51761;42.126;24.752;2023-03-20T04:38:09;99948.03;;;5.39;78.14
65175;BME280;51761;42.126;24.752;2023-03-20T04:40:35;99978.69;;;5.57;78.04
65175;BME280;51761;42.126;24.752;2023-03-20T04:43:01;99985.00;;;5.57;78.08
65175;BME280;51761;42.126;24.752;2023-03-20T04:45:26;99984.75;;;5.69;77.94
65175;BME280;51761;42.126;24.752;2023-03-20T04:47:52;99988.66;;;5.65;77.78
65175;BME280;51761;42.126;24.752;2023-03-20T04:50:17;99965.25;;;5.59;78.17
65175;BME280;51761;42.126;24.752;2023-03-20T04:52:43;99995.84;;;5.73;77.69
65175;BME280;51761;42.126;24.752;2023-03-20T04:55:08;99961.66;;;5.58;77.58
65175;BME280;51761;42.126;24.752;2023-03-20T04:57:34;99993.63;;;5.85;77.21
65175;BME280;51761;42.126;24.752;2023-03-20T04:59:59;100004.44;;;6.01;77.02
65175;BME280;51761;42.126;24.752;2023-03-20T05:02:25;99972.31;;;5.93;76.37
65175;BME280;51761;42.126;24.752;2023-03-20T05:04:51;99986.66;;;6.05;76.08
65175;BME280;51761;42.126;24.752;2023-03-20T05:07:17;99975.53;;;6.02;75.87
65175;BME280;51761;42.126;24.752;2023-03-20T05:09:42;99968.41;;;6.01;75.57
65175;BME280;51761;42.126;24.752;2023-03-20T05:12:08;99999.03;;;6.18;75.34
65175;BME280;51761;42.126;24.752;2023-03-20T05:14:34;99980.44;;;6.19;74.97
65175;BME280;51761;42.126;24.752;2023-03-20T05:16:59;100007.97;;;6.48;74.57
65175;BME280;51761;42.126;24.752;2023-03-20T05:19:24;100004.41;;;6.47;74.40
65175;BME280;51761;42.126;24.752;2023-03-20T05:21:50;99989.78;;;6.50;74.41
65175;BME280;51761;42.126;24.752;2023-03-20T05:24:16;100005.28;;;6.55;74.19
65175;BME280;51761;42.126;24.752;2023-03-20T05:26:41;99983.41;;;6.50;73.69
65175;BME280;51761;42.126;24.752;2023-03-20T05:29:07;99979.16;;;6.63;73.45
65175;BME280;51761;42.126;24.752;2023-03-20T05:31:32;99981.16;;;6.73;73.13
65175;BME280;51761;42.126;24.752;2023-03-20T05:33:58;99994.72;;;6.88;72.73
65175;BME280;51761;42.126;24.752;2023-03-20T05:36:23;100004.03;;;7.31;70.95
65175;BME280;51761;42.126;24.752;2023-03-20T05:38:48;99987.41;;;7.48;69.75
65175;BME280;51761;42.126;24.752;2023-03-20T05:41:14;100001.78;;;8.16;67.39
65175;BME280;51761;42.126;24.752;2023-03-20T05:43:40;99995.25;;;9.17;63.90
65175;BME280;51761;42.126;24.752;2023-03-20T05:46:05;99972.28;;;9.64;61.50
65175;BME280;51761;42.126;24.752;2023-03-20T05:48:31;99993.22;;;10.44;59.92
65175;BME280;51761;42.126;24.752;2023-03-20T05:50:56;100008.88;;;11.11;57.48
65175;BME280;51761;42.126;24.752;2023-03-20T05:53:22;99999.81;;;11.64;55.75
65175;BME280;51761;42.126;24.752;2023-03-20T05:55:47;99999.28;;;11.99;54.20
65175;BME280;51761;42.126;24.752;2023-03-20T05:58:13;100008.78;;;12.77;51.77
65175;BME280;51761;42.126;24.752;2023-03-20T06:00:38;100005.94;;;13.00;50.33
65175;BME280;51761;42.126;24.752;2023-03-20T06:03:04;100000.56;;;13.48;49.05
65175;BME280;51761;42.126;24.752;2023-03-20T06:05:32;100008.81;;;14.41;46.69
65175;BME280;51761;42.126;24.752;2023-03-20T06:07:58;99991.84;;;14.77;46.30
65175;BME280;51761;42.126;24.752;2023-03-20T06:10:23;99981.56;;;15.27;44.50
65175;BME280;51761;42.126;24.752;2023-03-20T06:12:48;99984.00;;;15.41;44.36
65175;BME280;51761;42.126;24.752;2023-03-20T06:15:14;100004.81;;;15.31;44.44
65175;BME280;51761;42.126;24.752;2023-03-20T06:17:40;99979.53;;;15.15;46.24
65175;BME280;51761;42.126;24.752;2023-03-20T06:20:06;99983.59;;;14.70;46.45
65175;BME280;51761;42.126;24.752;2023-03-20T06:22:32;100005.47;;;15.76;43.48
65175;BME280;51761;42.126;24.752;2023-03-20T06:24:57;99980.47;;;15.78;43.40
65175;BME280;51761;42.126;24.752;2023-03-20T06:27:23;99987.34;;;15.77;43.58
65175;BME280;51761;42.126;24.752;2023-03-20T06:29:49;100001.31;;;16.30;42.47
65175;BME280;51761;42.126;24.752;2023-03-20T06:32:15;99999.38;;;16.99;40.60
65175;BME280;51761;42.126;24.752;2023-03-20T06:34:41;100001.44;;;17.20;40.26
65175;BME280;51761;42.126;24.752;2023-03-20T06:37:07;99989.81;;;16.62;41.11
65175;BME280;51761;42.126;24.752;2023-03-20T06:39:32;99976.78;;;16.77;40.63
65175;BME280;51761;42.126;24.752;2023-03-20T06:41:58;100000.22;;;17.63;39.01
65175;BME280;51761;42.126;24.752;2023-03-20T06:44:24;99995.06;;;17.92;39.29
65175;BME280;51761;42.126;24.752;2023-03-20T06:46:51;99977.53;;;17.76;39.11
65175;BME280;51761;42.126;24.752;2023-03-20T06:49:16;99996.53;;;18.06;39.30
65175;BME280;51761;42.126;24.752;2023-03-20T06:51:42;99979.72;;;17.29;39.90
65175;BME280;51761;42.126;24.752;2023-03-20T06:54:07;99978.16;;;17.28;40.65
65175;BME280;51761;42.126;24.752;2023-03-20T06:56:33;99998.22;;;18.03;38.96
65175;BME280;51761;42.126;24.752;2023-03-20T06:58:58;99970.56;;;17.89;40.20
65175;BME280;51761;42.126;24.752;2023-03-20T07:01:24;99993.00;;;17.62;40.10
65175;BME280;51761;42.126;24.752;2023-03-20T07:03:50;99985.47;;;17.26;40.52
65175;BME280;51761;42.126;24.752;2023-03-20T07:06:15;99981.06;;;17.58;39.38
65175;BME280;51761;42.126;24.752;2023-03-20T07:08:43;99989.09;;;17.90;39.82
65175;BME280;51761;42.126;24.752;2023-03-20T07:11:09;99970.34;;;17.53;39.53
65175;BME280;51761;42.126;24.752;2023-03-20T07:13:35;99968.78;;;18.22;38.76
65175;BME280;51761;42.126;24.752;2023-03-20T07:16:01;99989.56;;;17.67;40.43
65175;BME280;51761;42.126;24.752;2023-03-20T07:18:27;100002.06;;;17.57;40.53
65175;BME280;51761;42.126;24.752;2023-03-20T07:20:58;99999.66;;;17.77;40.34
65175;BME280;51761;42.126;24.752;2023-03-20T07:23:24;99991.78;;;17.72;39.61
65175;BME280;51761;42.126;24.752;2023-03-20T07:25:49;99982.94;;;17.92;39.75
65175;BME280;51761;42.126;24.752;2023-03-20T07:28:16;99970.25;;;17.96;39.17
65175;BME280;51761;42.126;24.752;2023-03-20T07:30:41;99986.81;;;18.16;39.93
65175;BME280;51761;42.126;24.752;2023-03-20T07:33:07;99997.97;;;17.80;39.15
65175;BME280;51761;42.126;24.752;2023-03-20T07:35:33;99959.72;;;18.27;38.66
65175;BME280;51761;42.126;24.752;2023-03-20T07:37:58;99972.88;;;18.21;39.16
65175;BME280;51761;42.126;24.752;2023-03-20T07:40:24;99973.03;;;18.75;38.26
65175;BME280;51761;42.126;24.752;2023-03-20T07:42:50;99952.41;;;18.57;37.74
65175;BME280;51761;42.126;24.752;2023-03-20T07:45:16;99951.34;;;18.72;37.64
65175;BME280;51761;42.126;24.752;2023-03-20T07:47:43;99977.25;;;18.62;38.28
65175;BME280;51761;42.126;24.752;2023-03-20T07:50:09;99965.88;;;17.95;39.83
65175;BME280;51761;42.126;24.752;2023-03-20T07:52:35;99959.81;;;17.84;39.40
65175;BME280;51761;42.126;24.752;2023-03-20T07:55:01;99969.94;;;17.94;41.06
65175;BME280;51761;42.126;24.752;2023-03-20T07:57:26;99965.47;;;18.24;39.48
65175;BME280;51761;42.126;24.752;2023-03-20T07:59:52;99954.72;;;18.31;39.02
65175;BME280;51761;42.126;24.752;2023-03-20T08:02:17;99962.34;;;18.97;38.56
65175;BME280;51761;42.126;24.752;2023-03-20T08:04:43;99945.53;;;18.18;38.41
65175;BME280;51761;42.126;24.752;2023-03-20T08:07:10;99965.16;;;18.70;37.52
65175;BME280;51761;42.126;24.752;2023-03-20T08:09:35;99963.06;;;18.53;38.13
65175;BME280;51761;42.126;24.752;2023-03-20T08:12:01;99950.69;;;18.50;38.24
65175;BME280;51761;42.126;24.752;2023-03-20T08:14:27;99946.41;;;18.55;39.01
65175;BME280;51761;42.126;24.752;2023-03-20T08:16:52;99942.53;;;18.97;38.93
65175;BME280;51761;42.126;24.752;2023-03-20T08:19:18;99941.13;;;18.93;36.32
65175;BME280;51761;42.126;24.752;2023-03-20T08:21:43;99957.97;;;19.05;38.17
65175;BME280;51761;42.126;24.752;2023-03-20T08:24:09;99940.34;;;19.01;39.21
65175;BME280;51761;42.126;24.752;2023-03-20T08:26:34;99966.44;;;19.14;39.76
65175;BME280;51761;42.126;24.752;2023-03-20T08:29:00;99951.03;;;19.33;38.77
65175;BME280;51761;42.126;24.752;2023-03-20T08:31:25;99957.66;;;19.30;39.52
65175;BME280;51761;42.126;24.752;2023-03-20T08:33:51;99960.13;;;19.46;40.85
65175;BME280;51761;42.126;24.752;2023-03-20T08:36:17;99961.72;;;19.97;39.09
65175;BME280;51761;42.126;24.752;2023-03-20T08:38:47;99946.63;;;19.91;41.56
65175;BME280;51761;42.126;24.752;2023-03-20T08:41:14;99948.84;;;20.29;37.47
65175;BME280;51761;42.126;24.752;2023-03-20T08:43:39;99955.81;;;20.75;39.83
65175;BME280;51761;42.126;24.752;2023-03-20T08:46:05;99941.31;;;20.49;38.28
65175;BME280;51761;42.126;24.752;2023-03-20T08:48:31;99942.09;;;20.73;35.97
65175;BME280;51761;42.126;24.752;2023-03-20T08:50:56;99953.22;;;20.86;36.87
65175;BME280;51761;42.126;24.752;2023-03-20T08:53:22;99949.41;;;20.88;34.86
65175;BME280;51761;42.126;24.752;2023-03-20T08:55:52;99937.50;;;20.52;37.51
65175;BME280;51761;42.126;24.752;2023-03-20T08:58:19;99945.66;;;20.36;40.38
65175;BME280;51761;42.126;24.752;2023-03-20T09:00:44;99936.59;;;20.46;36.79
65175;BME280;51761;42.126;24.752;2023-03-20T09:03:15;99929.66;;;20.24;38.05
65175;BME280;51761;42.126;24.752;2023-03-20T09:05:49;99938.06;;;20.65;38.38
65175;BME280;51761;42.126;24.752;2023-03-20T09:08:16;99934.38;;;20.74;37.90
65175;BME280;51761;42.126;24.752;2023-03-20T09:10:41;99926.47;;;20.78;38.69
65175;BME280;51761;42.126;24.752;2023-03-20T09:13:07;99930.03;;;21.25;37.49
65175;BME280;51761;42.126;24.752;2023-03-20T09:15:34;99932.97;;;20.92;35.53
65175;BME280;51761;42.126;24.752;2023-03-20T09:18:00;99909.81;;;21.08;38.41
65175;BME280;51761;42.126;24.752;2023-03-20T09:20:26;99919.88;;;20.95;34.23
65175;BME280;51761;42.126;24.752;2023-03-20T09:22:51;99917.13;;;20.86;37.16
65175;BME280;51761;42.126;24.752;2023-03-20T09:25:17;99908.72;;;20.68;36.06
65175;BME280;51761;42.126;24.752;2023-03-20T09:27:42;99928.44;;;20.63;34.98
65175;BME280;51761;42.126;24.752;2023-03-20T09:30:09;99918.81;;;20.46;37.10
65175;BME280;51761;42.126;24.752;2023-03-20T09:32:35;99916.97;;;20.81;35.17
65175;BME280;51761;42.126;24.752;2023-03-20T09:35:01;99908.38;;;21.13;38.67
65175;BME280;51761;42.126;24.752;2023-03-20T09:37:28;99895.81;;;21.34;35.20
65175;BME280;51761;42.126;24.752;2023-03-20T09:39:53;99909.97;;;21.57;35.04
65175;BME280;51761;42.126;24.752;2023-03-20T09:45:13;99895.75;;;21.86;34.57
65175;BME280;51761;42.126;24.752;2023-03-20T09:47:49;99896.38;;;21.96;34.25
65175;BME280;51761;42.126;24.752;2023-03-20T09:50:34;99894.38;;;21.82;34.11
65175;BME280;51761;42.126;24.752;2023-03-20T09:53:10;99891.00;;;21.54;34.04
65175;BME280;51761;42.126;24.752;2023-03-20T09:55:39;99885.44;;;21.60;34.81
65175;BME280;51761;42.126;24.752;2023-03-20T09:58:14;99886.56;;;21.97;34.29
65175;BME280;51761;42.126;24.752;2023-03-20T10:00:44;99865.81;;;21.91;33.40
65175;BME280;51761;42.126;24.752;2023-03-20T10:03:20;99875.22;;;21.82;34.86
65175;BME280;51761;42.126;24.752;2023-03-20T10:08:19;99872.53;;;22.08;34.76
65175;BME280;51761;42.126;24.752;2023-03-20T10:10:51;99848.69;;;21.56;34.75
65175;BME280;51761;42.126;24.752;2023-03-20T10:18:39;99849.25;;;21.89;33.80
65175;BME280;51761;42.126;24.752;2023-03-20T10:21:25;99852.53;;;22.02;35.52
65175;BME280;51761;42.126;24.752;2023-03-20T10:24:01;99844.94;;;21.79;34.00
65175;BME280;51761;42.126;24.752;2023-03-20T10:26:30;99847.31;;;21.81;32.77
65175;BME280;51761;42.126;24.752;2023-03-20T10:42:20;99794.38;;;21.69;33.61
65175;BME280;51761;42.126;24.752;2023-03-20T10:44:57;99811.34;;;21.78;32.79
65175;BME280;51761;42.126;24.752;2023-03-20T10:47:27;99802.34;;;21.99;32.83
65175;BME280;51761;42.126;24.752;2023-03-20T10:49:57;99804.63;;;22.35;32.69
65175;BME280;51761;42.126;24.752;2023-03-20T10:52:31;99792.19;;;22.33;32.79
65175;BME280;51761;42.126;24.752;2023-03-20T10:55:17;99788.56;;;22.52;33.48
65175;BME280;51761;42.126;24.752;2023-03-20T10:57:49;99776.16;;;22.55;32.29
65175;BME280;51761;42.126;24.752;2023-03-20T11:00:20;99778.31;;;22.40;32.95
65175;BME280;51761;42.126;24.752;2023-03-20T11:02:46;99771.75;;;22.54;33.42
65175;BME280;51761;42.126;24.752;2023-03-20T11:05:33;99773.13;;;22.58;33.02
65175;BME280;51761;42.126;24.752;2023-03-20T11:08:11;99751.28;;;22.50;31.98
65175;BME280;51761;42.126;24.752;2023-03-20T11:10:39;99737.31;;;22.52;32.54
65175;BME280;51761;42.126;24.752;2023-03-20T11:13:24;99758.25;;;23.00;33.10
65175;BME280;51761;42.126;24.752;2023-03-20T11:15:51;99760.81;;;22.07;31.79
65175;BME280;51761;42.126;24.752;2023-03-20T11:18:17;99734.63;;;21.63;32.57
65175;BME280;51761;42.126;24.752;2023-03-20T11:20:50;99745.25;;;22.03;31.33
65175;BME280;51761;42.126;24.752;2023-03-20T11:23:19;99732.97;;;22.37;32.35
65175;BME280;51761;42.126;24.752;2023-03-20T11:26:05;99733.56;;;22.41;32.36
65175;BME280;51761;42.126;24.752;2023-03-20T11:28:39;99715.66;;;22.60;31.98
65175;BME280;51761;42.126;24.752;2023-03-20T11:31:15;99709.50;;;22.67;32.03
65175;BME280;51761;42.126;24.752;2023-03-20T11:33:49;99715.19;;;23.18;31.49
65175;BME280;51761;42.126;24.752;2023-03-20T11:36:25;99717.13;;;23.32;30.36
65175;BME280;51761;42.126;24.752;2023-03-20T11:38:52;99705.34;;;23.19;31.09
65175;BME280;51761;42.126;24.752;2023-03-20T11:41:25;99693.72;;;22.91;31.15
65175;BME280;51761;42.126;24.752;2023-03-20T11:43:51;99698.44;;;23.00;30.09
65175;BME280;51761;42.126;24.752;2023-03-20T11:46:19;99680.84;;;23.01;30.16
65175;BME280;51761;42.126;24.752;2023-03-20T11:48:46;99689.38;;;23.32;31.44
65175;BME280;51761;42.126;24.752;2023-03-20T11:51:20;99687.31;;;23.33;30.40
65175;BME280;51761;42.126;24.752;2023-03-20T11:56:13;99678.13;;;23.54;29.32
65175;BME280;51761;42.126;24.752;2023-03-20T12:01:13;99673.28;;;23.29;30.74
65175;BME280;51761;42.126;24.752;2023-03-20T12:06:22;99655.53;;;22.78;31.50
65175;BME280;51761;42.126;24.752;2023-03-20T12:09:02;99665.84;;;22.75;30.82
65175;BME280;51761;42.126;24.752;2023-03-20T12:14:10;99651.38;;;22.48;31.68
65175;BME280;51761;42.126;24.752;2023-03-20T12:16:37;99629.91;;;22.47;31.49
65175;BME280;51761;42.126;24.752;2023-03-20T12:19:10;99647.53;;;22.82;31.10
65175;BME280;51761;42.126;24.752;2023-03-20T12:21:45;99646.38;;;22.99;31.46
65175;BME280;51761;42.126;24.752;2023-03-20T12:24:20;99621.22;;;23.29;31.02
65175;BME280;51761;42.126;24.752;2023-03-20T12:26:55;99646.28;;;23.61;30.86
65175;BME280;51761;42.126;24.752;2023-03-20T12:29:30;99642.47;;;23.81;29.89
65175;BME280;51761;42.126;24.752;2023-03-20T12:32:01;99647.63;;;23.77;30.35
65175;BME280;51761;42.126;24.752;2023-03-20T12:34:35;99638.34;;;23.82;29.65
65175;BME280;51761;42.126;24.752;2023-03-20T12:37:02;99634.72;;;23.81;30.07
65175;BME280;51761;42.126;24.752;2023-03-20T12:39:35;99629.88;;;23.51;30.17
65175;BME280;51761;42.126;24.752;2023-03-20T12:45:17;99608.91;;;23.48;29.41
65175;BME280;51761;42.126;24.752;2023-03-20T12:47:46;99602.59;;;23.33;29.64
65175;BME280;51761;42.126;24.752;2023-03-20T13:04:05;99607.59;;;24.13;28.85
65175;BME280;51761;42.126;24.752;2023-03-20T13:07:02;99603.41;;;24.09;28.55
65175;BME280;51761;42.126;24.752;2023-03-20T13:09:43;99597.25;;;24.26;29.02
65175;BME280;51761;42.126;24.752;2023-03-20T13:12:28;99586.63;;;24.43;28.12
65175;BME280;51761;42.126;24.752;2023-03-20T13:22:55;99575.47;;;24.73;28.35
65175;BME280;51761;42.126;24.752;2023-03-20T13:31:42;99575.22;;;24.65;28.72
65175;BME280;51761;42.126;24.752;2023-03-20T13:37:26;99565.28;;;23.90;27.99
65175;BME280;51761;42.126;24.752;2023-03-20T13:40:39;99575.84;;;23.78;28.42
65175;BME280;51761;42.126;24.752;2023-03-20T13:45:43;99557.41;;;23.68;28.71
65175;BME280;51761;42.126;24.752;2023-03-20T13:51:03;99555.06;;;23.67;28.89
65175;BME280;51761;42.126;24.752;2023-03-20T13:59:36;99547.06;;;23.76;28.64
65175;BME280;51761;42.126;24.752;2023-03-20T14:02:23;99544.53;;;23.84;28.64
65175;BME280;51761;42.126;24.752;2023-03-20T14:05:02;99528.44;;;23.92;28.72
65175;BME280;51761;42.126;24.752;2023-03-20T14:07:34;99500.69;;;23.81;28.30
65175;BME280;51761;42.126;24.752;2023-03-20T14:12:58;99526.41;;;24.03;28.30
65175;BME280;51761;42.126;24.752;2023-03-20T14:15:32;99521.63;;;23.73;28.50
65175;BME280;51761;42.126;24.752;2023-03-20T14:18:03;99507.31;;;23.51;27.97
65175;BME280;51761;42.126;24.752;2023-03-20T14:20:36;99508.53;;;23.28;28.59
65175;BME280;51761;42.126;24.752;2023-03-20T14:23:03;99514.03;;;23.42;28.41
65175;BME280;51761;42.126;24.752;2023-03-20T14:25:35;99510.63;;;23.33;28.21
65175;BME280;51761;42.126;24.752;2023-03-20T14:35:47;99505.03;;;23.66;27.94
65175;BME280;51761;42.126;24.752;2023-03-20T14:48:54;99469.06;;;22.62;29.68
65175;BME280;51761;42.126;24.752;2023-03-20T14:51:36;99485.63;;;22.64;29.81
65175;BME280;51761;42.126;24.752;2023-03-20T14:56:47;99480.97;;;22.30;30.12
65175;BME280;51761;42.126;24.752;2023-03-20T14:59:14;99475.19;;;22.19;30.00
65175;BME280;51761;42.126;24.752;2023-03-20T15:01:55;99477.75;;;22.17;30.26
65175;BME280;51761;42.126;24.752;2023-03-20T15:06:50;99470.41;;;22.05;30.46
65175;BME280;51761;42.126;24.752;2023-03-20T15:09:19;99468.94;;;21.84;30.87
65175;BME280;51761;42.126;24.752;2023-03-20T15:11:47;99461.56;;;21.72;30.98
65175;BME280;51761;42.126;24.752;2023-03-20T15:14:19;99476.34;;;21.76;30.28
65175;BME280;51761;42.126;24.752;2023-03-20T15:16:46;99418.97;;;21.27;30.86
65175;BME280;51761;42.126;24.752;2023-03-20T15:19:21;99472.00;;;21.55;30.75
65175;BME280;51761;42.126;24.752;2023-03-20T15:21:47;99473.25;;;21.54;31.32
65175;BME280;51761;42.126;24.752;2023-03-20T15:24:25;99461.38;;;21.30;31.86